sensor_id;sensor_type;location;lat;lon;timestamp;P1;durP1;ratioP1;P2;durP2;ratioP2
41653;SDS011;68687;52.030;7.110;2023-05-29T00:00:08;21.02;;;5.75;;
41653;SDS011;68687;52.030;7.110;2023-05-29T00:02:34;21.88;;;5.55;;
41653;SDS011;68687;52.030;7.110;2023-05-29T00:05:00;18.92;;;5.30;;
41653;SDS011;68687;52.030;7.110;2023-05-29T00:07:28;23.00;;;6.60;;
41653;SDS011;68687;52.030;7.110;2023-05-29T00:09:54;20.50;;;6.25;;
41653;SDS011;68687;52.030;7.110;2023-05-29T00:12:19;19.90;;;4.97;;
41653;SDS011;68687;52.030;7.110;2023-05-29T00:14:45;22.25;;;4.93;;
41653;SDS011;68687;52.030;7.110;2023-05-29T00:17:10;22.48;;;5.75;;
41653;SDS011;68687;52.030;7.110;2023-05-29T00:19:37;20.42;;;5.80;;
41653;SDS011;68687;52.030;7.110;2023-05-29T00:22:02;24.15;;;6.32;;
41653;SDS011;68687;52.030;7.110;2023-05-29T00:24:28;15.90;;;5.25;;
41653;SDS011;68687;52.030;7.110;2023-05-29T00:26:53;26.48;;;5.68;;
41653;SDS011;68687;52.030;7.110;2023-05-29T00:29:18;27.27;;;5.60;;
41653;SDS011;68687;52.030;7.110;2023-05-29T00:31:46;22.48;;;5.18;;
41653;SDS011;68687;52.030;7.110;2023-05-29T00:34:11;25.30;;;6.30;;
41653;SDS011;68687;52.030;7.110;2023-05-29T00:36:36;24.13;;;5.97;;
41653;SDS011;68687;52.030;7.110;2023-05-29T00:39:02;21.23;;;6.07;;
41653;SDS011;68687;52.030;7.110;2023-05-29T00:41:27;21.13;;;5.45;;
41653;SDS011;68687;52.030;7.110;2023-05-29T00:43:53;29.00;;;5.78;;
41653;SDS011;68687;52.030;7.110;2023-05-29T00:46:18;25.80;;;6.95;;
41653;SDS011;68687;52.030;7.110;2023-05-29T00:48:45;25.30;;;6.07;;
41653;SDS011;68687;52.030;7.110;2023-05-29T00:51:11;23.35;;;6.15;;
41653;SDS011;68687;52.030;7.110;2023-05-29T00:53:39;30.05;;;6.03;;
41653;SDS011;68687;52.030;7.110;2023-05-29T00:56:07;17.52;;;5.13;;
41653;SDS011;68687;52.030;7.110;2023-05-29T00:58:33;36.05;;;6.45;;
41653;SDS011;68687;52.030;7.110;2023-05-29T01:00:59;20.60;;;5.60;;
41653;SDS011;68687;52.030;7.110;2023-05-29T01:03:25;22.55;;;6.00;;
41653;SDS011;68687;52.030;7.110;2023-05-29T01:05:51;23.58;;;5.95;;
41653;SDS011;68687;52.030;7.110;2023-05-29T01:08:17;20.33;;;5.57;;
41653;SDS011;68687;52.030;7.110;2023-05-29T01:10:43;24.65;;;5.70;;
41653;SDS011;68687;52.030;7.110;2023-05-29T01:13:13;18.38;;;5.43;;
41653;SDS011;68687;52.030;7.110;2023-05-29T01:26:23;29.50;;;5.63;;
41653;SDS011;68687;52.030;7.110;2023-05-29T01:28:56;25.13;;;5.85;;
41653;SDS011;68687;52.030;7.110;2023-05-29T01:31:25;25.35;;;5.70;;
41653;SDS011;68687;52.030;7.110;2023-05-29T01:33:55;19.58;;;5.53;;
41653;SDS011;68687;52.030;7.110;2023-05-29T01:36:22;22.92;;;5.65;;
41653;SDS011;68687;52.030;7.110;2023-05-29T01:38:48;20.70;;;5.43;;
41653;SDS011;68687;52.030;7.110;2023-05-29T01:41:14;26.27;;;5.57;;
41653;SDS011;68687;52.030;7.110;2023-05-29T01:43:41;21.88;;;5.38;;
41653;SDS011;68687;52.030;7.110;2023-05-29T01:46:09;25.65;;;5.90;;
41653;SDS011;68687;52.030;7.110;2023-05-29T01:48:34;25.77;;;5.93;;
41653;SDS011;68687;52.030;7.110;2023-05-29T01:51:00;23.92;;;5.72;;
41653;SDS011;68687;52.030;7.110;2023-05-29T01:53:26;19.10;;;5.75;;
41653;SDS011;68687;52.030;7.110;2023-05-29T01:55:51;19.50;;;5.38;;
41653;SDS011;68687;52.030;7.110;2023-05-29T01:58:17;27.88;;;6.25;;
41653;SDS011;68687;52.030;7.110;2023-05-29T02:00:45;37.50;;;6.05;;
41653;SDS011;68687;52.030;7.110;2023-05-29T02:03:10;32.60;;;7.00;;
41653;SDS011;68687;52.030;7.110;2023-05-29T02:05:36;33.00;;;6.88;;
41653;SDS011;68687;52.030;7.110;2023-05-29T02:08:01;32.90;;;5.75;;
41653;SDS011;68687;52.030;7.110;2023-05-29T02:10:26;24.30;;;6.25;;
41653;SDS011;68687;52.030;7.110;2023-05-29T02:12:52;29.13;;;6.55;;
41653;SDS011;68687;52.030;7.110;2023-05-29T02:15:17;26.67;;;5.93;;
41653;SDS011;68687;52.030;7.110;2023-05-29T02:17:42;22.00;;;5.93;;
41653;SDS011;68687;52.030;7.110;2023-05-29T02:20:09;30.15;;;6.13;;
41653;SDS011;68687;52.030;7.110;2023-05-29T02:22:35;25.10;;;5.68;;
41653;SDS011;68687;52.030;7.110;2023-05-29T02:25:01;23.48;;;6.53;;
41653;SDS011;68687;52.030;7.110;2023-05-29T02:27:26;28.13;;;5.65;;
41653;SDS011;68687;52.030;7.110;2023-05-29T02:29:51;15.18;;;5.57;;
41653;SDS011;68687;52.030;7.110;2023-05-29T02:32:17;22.63;;;6.53;;
41653;SDS011;68687;52.030;7.110;2023-05-29T02:34:42;21.40;;;5.75;;
41653;SDS011;68687;52.030;7.110;2023-05-29T02:37:07;36.85;;;6.38;;
41653;SDS011;68687;52.030;7.110;2023-05-29T02:39:33;21.42;;;6.38;;
41653;SDS011;68687;52.030;7.110;2023-05-29T02:41:58;17.20;;;5.70;;
41653;SDS011;68687;52.030;7.110;2023-05-29T02:44:23;26.30;;;6.35;;
41653;SDS011;68687;52.030;7.110;2023-05-29T02:46:49;23.90;;;6.50;;
41653;SDS011;68687;52.030;7.110;2023-05-29T02:49:14;25.20;;;5.90;;
41653;SDS011;68687;52.030;7.110;2023-05-29T02:51:39;26.05;;;6.00;;
41653;SDS011;68687;52.030;7.110;2023-05-29T02:54:05;29.45;;;7.35;;
41653;SDS011;68687;52.030;7.110;2023-05-29T02:56:30;26.45;;;6.75;;
41653;SDS011;68687;52.030;7.110;2023-05-29T02:58:55;23.27;;;5.43;;
41653;SDS011;68687;52.030;7.110;2023-05-29T03:01:21;31.33;;;5.88;;
41653;SDS011;68687;52.030;7.110;2023-05-29T03:03:46;21.13;;;5.22;;
41653;SDS011;68687;52.030;7.110;2023-05-29T03:06:11;17.42;;;5.18;;
41653;SDS011;68687;52.030;7.110;2023-05-29T03:08:41;30.70;;;6.05;;
41653;SDS011;68687;52.030;7.110;2023-05-29T03:11:10;23.20;;;5.85;;
41653;SDS011;68687;52.030;7.110;2023-05-29T03:13:38;27.67;;;5.80;;
41653;SDS011;68687;52.030;7.110;2023-05-29T03:16:04;26.85;;;6.25;;
41653;SDS011;68687;52.030;7.110;2023-05-29T03:18:30;29.38;;;5.63;;
41653;SDS011;68687;52.030;7.110;2023-05-29T03:20:55;25.88;;;5.53;;
41653;SDS011;68687;52.030;7.110;2023-05-29T03:23:20;30.67;;;6.18;;
41653;SDS011;68687;52.030;7.110;2023-05-29T03:25:46;25.85;;;6.13;;
41653;SDS011;68687;52.030;7.110;2023-05-29T03:28:11;24.98;;;6.20;;
41653;SDS011;68687;52.030;7.110;2023-05-29T03:30:36;33.25;;;7.32;;
41653;SDS011;68687;52.030;7.110;2023-05-29T03:33:02;26.67;;;7.28;;
41653;SDS011;68687;52.030;7.110;2023-05-29T03:35:29;28.10;;;6.07;;
41653;SDS011;68687;52.030;7.110;2023-05-29T03:37:54;22.00;;;5.70;;
41653;SDS011;68687;52.030;7.110;2023-05-29T03:40:20;19.13;;;5.05;;
41653;SDS011;68687;52.030;7.110;2023-05-29T03:42:45;26.88;;;5.45;;
41653;SDS011;68687;52.030;7.110;2023-05-29T03:45:11;21.95;;;5.70;;
41653;SDS011;68687;52.030;7.110;2023-05-29T03:47:36;24.50;;;5.63;;
41653;SDS011;68687;52.030;7.110;2023-05-29T03:50:02;29.52;;;6.00;;
41653;SDS011;68687;52.030;7.110;2023-05-29T03:52:27;25.58;;;5.90;;
41653;SDS011;68687;52.030;7.110;2023-05-29T03:54:52;30.70;;;5.60;;
41653;SDS011;68687;52.030;7.110;2023-05-29T03:57:18;34.50;;;6.15;;
41653;SDS011;68687;52.030;7.110;2023-05-29T03:59:43;28.42;;;6.00;;
41653;SDS011;68687;52.030;7.110;2023-05-29T04:02:08;19.70;;;4.85;;
41653;SDS011;68687;52.030;7.110;2023-05-29T04:04:33;26.40;;;5.55;;
41653;SDS011;68687;52.030;7.110;2023-05-29T04:07:00;24.83;;;5.32;;
41653;SDS011;68687;52.030;7.110;2023-05-29T04:09:25;22.88;;;5.60;;
41653;SDS011;68687;52.030;7.110;2023-05-29T04:11:50;24.88;;;6.25;;
41653;SDS011;68687;52.030;7.110;2023-05-29T04:14:17;33.28;;;5.53;;
41653;SDS011;68687;52.030;7.110;2023-05-29T04:16:42;22.52;;;5.65;;
41653;SDS011;68687;52.030;7.110;2023-05-29T04:19:08;29.48;;;5.75;;
41653;SDS011;68687;52.030;7.110;2023-05-29T04:21:33;26.10;;;5.65;;
41653;SDS011;68687;52.030;7.110;2023-05-29T04:23:59;27.65;;;5.45;;
41653;SDS011;68687;52.030;7.110;2023-05-29T04:26:25;19.77;;;5.35;;
41653;SDS011;68687;52.030;7.110;2023-05-29T04:28:52;19.88;;;6.45;;
41653;SDS011;68687;52.030;7.110;2023-05-29T04:31:22;23.33;;;5.60;;
41653;SDS011;68687;52.030;7.110;2023-05-29T04:33:50;31.73;;;5.57;;
41653;SDS011;68687;52.030;7.110;2023-05-29T04:36:19;27.75;;;5.05;;
41653;SDS011;68687;52.030;7.110;2023-05-29T04:38:45;20.42;;;5.30;;
41653;SDS011;68687;52.030;7.110;2023-05-29T04:41:12;21.20;;;5.00;;
41653;SDS011;68687;52.030;7.110;2023-05-29T04:43:37;23.25;;;5.15;;
41653;SDS011;68687;52.030;7.110;2023-05-29T04:46:05;24.40;;;5.75;;
41653;SDS011;68687;52.030;7.110;2023-05-29T04:48:32;31.25;;;5.72;;
41653;SDS011;68687;52.030;7.110;2023-05-29T04:50:57;30.08;;;5.97;;
41653;SDS011;68687;52.030;7.110;2023-05-29T04:53:24;30.92;;;6.47;;
41653;SDS011;68687;52.030;7.110;2023-05-29T04:55:49;28.50;;;6.20;;
41653;SDS011;68687;52.030;7.110;2023-05-29T04:58:15;20.45;;;5.28;;
41653;SDS011;68687;52.030;7.110;2023-05-29T05:00:40;19.85;;;6.03;;
41653;SDS011;68687;52.030;7.110;2023-05-29T05:03:05;19.90;;;5.18;;
41653;SDS011;68687;52.030;7.110;2023-05-29T05:05:31;21.48;;;5.68;;
41653;SDS011;68687;52.030;7.110;2023-05-29T05:07:56;20.63;;;5.07;;
41653;SDS011;68687;52.030;7.110;2023-05-29T05:10:21;28.25;;;5.32;;
41653;SDS011;68687;52.030;7.110;2023-05-29T05:12:46;21.42;;;6.22;;
41653;SDS011;68687;52.030;7.110;2023-05-29T05:15:12;29.25;;;5.30;;
41653;SDS011;68687;52.030;7.110;2023-05-29T05:17:37;24.15;;;5.40;;
41653;SDS011;68687;52.030;7.110;2023-05-29T05:20:03;23.58;;;6.10;;
41653;SDS011;68687;52.030;7.110;2023-05-29T05:22:30;29.05;;;5.80;;
41653;SDS011;68687;52.030;7.110;2023-05-29T05:24:56;29.25;;;5.63;;
41653;SDS011;68687;52.030;7.110;2023-05-29T05:27:21;22.02;;;5.43;;
41653;SDS011;68687;52.030;7.110;2023-05-29T05:29:46;23.48;;;5.45;;
41653;SDS011;68687;52.030;7.110;2023-05-29T05:32:12;32.38;;;5.07;;
41653;SDS011;68687;52.030;7.110;2023-05-29T05:34:37;25.40;;;5.30;;
41653;SDS011;68687;52.030;7.110;2023-05-29T05:37:02;24.58;;;5.63;;
41653;SDS011;68687;52.030;7.110;2023-05-29T05:39:28;26.58;;;5.78;;
41653;SDS011;68687;52.030;7.110;2023-05-29T05:41:53;24.85;;;6.00;;
41653;SDS011;68687;52.030;7.110;2023-05-29T05:44:18;30.85;;;5.18;;
41653;SDS011;68687;52.030;7.110;2023-05-29T05:46:44;22.92;;;5.88;;
41653;SDS011;68687;52.030;7.110;2023-05-29T05:49:10;21.38;;;6.22;;
41653;SDS011;68687;52.030;7.110;2023-05-29T05:51:35;21.90;;;4.97;;
41653;SDS011;68687;52.030;7.110;2023-05-29T05:54:00;26.23;;;5.45;;
41653;SDS011;68687;52.030;7.110;2023-05-29T05:56:26;21.58;;;4.82;;
41653;SDS011;68687;52.030;7.110;2023-05-29T05:58:51;24.13;;;5.05;;
41653;SDS011;68687;52.030;7.110;2023-05-29T06:01:16;20.00;;;4.78;;
41653;SDS011;68687;52.030;7.110;2023-05-29T06:03:41;19.33;;;4.80;;
41653;SDS011;68687;52.030;7.110;2023-05-29T06:06:07;24.70;;;5.30;;
41653;SDS011;68687;52.030;7.110;2023-05-29T06:08:33;23.50;;;5.47;;
41653;SDS011;68687;52.030;7.110;2023-05-29T06:10:59;28.10;;;5.40;;
41653;SDS011;68687;52.030;7.110;2023-05-29T06:13:24;21.10;;;5.47;;
41653;SDS011;68687;52.030;7.110;2023-05-29T06:15:49;28.55;;;5.50;;
41653;SDS011;68687;52.030;7.110;2023-05-29T06:18:15;22.70;;;5.53;;
41653;SDS011;68687;52.030;7.110;2023-05-29T06:20:40;18.20;;;4.70;;
41653;SDS011;68687;52.030;7.110;2023-05-29T06:23:06;26.17;;;5.38;;
41653;SDS011;68687;52.030;7.110;2023-05-29T06:25:31;24.63;;;6.13;;
41653;SDS011;68687;52.030;7.110;2023-05-29T06:28:00;21.30;;;5.22;;
41653;SDS011;68687;52.030;7.110;2023-05-29T06:30:26;23.92;;;4.60;;
41653;SDS011;68687;52.030;7.110;2023-05-29T06:32:51;17.02;;;4.78;;
41653;SDS011;68687;52.030;7.110;2023-05-29T06:35:17;25.50;;;4.70;;
41653;SDS011;68687;52.030;7.110;2023-05-29T06:37:42;21.60;;;4.50;;
41653;SDS011;68687;52.030;7.110;2023-05-29T06:40:07;27.30;;;4.68;;
41653;SDS011;68687;52.030;7.110;2023-05-29T06:42:33;27.02;;;4.90;;
41653;SDS011;68687;52.030;7.110;2023-05-29T06:44:58;28.83;;;5.45;;
41653;SDS011;68687;52.030;7.110;2023-05-29T06:47:23;23.88;;;5.40;;
41653;SDS011;68687;52.030;7.110;2023-05-29T06:49:49;22.30;;;5.35;;
41653;SDS011;68687;52.030;7.110;2023-05-29T06:52:14;18.17;;;4.70;;
41653;SDS011;68687;52.030;7.110;2023-05-29T06:54:39;15.18;;;4.32;;
41653;SDS011;68687;52.030;7.110;2023-05-29T06:57:05;23.00;;;4.78;;
41653;SDS011;68687;52.030;7.110;2023-05-29T06:59:30;22.55;;;4.38;;
41653;SDS011;68687;52.030;7.110;2023-05-29T07:01:55;24.35;;;5.05;;
41653;SDS011;68687;52.030;7.110;2023-05-29T07:04:21;17.25;;;4.47;;
41653;SDS011;68687;52.030;7.110;2023-05-29T07:06:46;21.33;;;4.55;;
41653;SDS011;68687;52.030;7.110;2023-05-29T07:09:11;22.50;;;4.57;;
41653;SDS011;68687;52.030;7.110;2023-05-29T07:11:37;17.05;;;4.50;;
41653;SDS011;68687;52.030;7.110;2023-05-29T07:14:03;17.67;;;4.13;;
41653;SDS011;68687;52.030;7.110;2023-05-29T07:16:28;24.13;;;4.80;;
41653;SDS011;68687;52.030;7.110;2023-05-29T07:18:53;20.55;;;4.38;;
41653;SDS011;68687;52.030;7.110;2023-05-29T07:21:19;16.70;;;4.22;;
41653;SDS011;68687;52.030;7.110;2023-05-29T07:23:45;17.08;;;4.43;;
41653;SDS011;68687;52.030;7.110;2023-05-29T07:26:10;21.73;;;4.32;;
41653;SDS011;68687;52.030;7.110;2023-05-29T07:28:35;16.15;;;4.47;;
41653;SDS011;68687;52.030;7.110;2023-05-29T07:31:01;13.93;;;4.13;;
41653;SDS011;68687;52.030;7.110;2023-05-29T07:33:26;24.95;;;4.63;;
41653;SDS011;68687;52.030;7.110;2023-05-29T07:35:52;17.48;;;3.92;;
41653;SDS011;68687;52.030;7.110;2023-05-29T07:38:17;19.90;;;4.22;;
41653;SDS011;68687;52.030;7.110;2023-05-29T07:40:42;26.33;;;4.40;;
41653;SDS011;68687;52.030;7.110;2023-05-29T07:43:07;16.27;;;4.43;;
41653;SDS011;68687;52.030;7.110;2023-05-29T07:45:33;11.48;;;4.10;;
41653;SDS011;68687;52.030;7.110;2023-05-29T07:47:58;18.45;;;4.95;;
41653;SDS011;68687;52.030;7.110;2023-05-29T07:50:23;16.30;;;4.20;;
41653;SDS011;68687;52.030;7.110;2023-05-29T07:52:49;20.77;;;4.82;;
41653;SDS011;68687;52.030;7.110;2023-05-29T07:55:14;18.67;;;4.50;;
41653;SDS011;68687;52.030;7.110;2023-05-29T07:57:39;16.40;;;4.03;;
41653;SDS011;68687;52.030;7.110;2023-05-29T08:00:05;19.13;;;4.43;;
41653;SDS011;68687;52.030;7.110;2023-05-29T08:02:32;17.20;;;4.10;;
41653;SDS011;68687;52.030;7.110;2023-05-29T08:05:03;16.25;;;4.90;;
41653;SDS011;68687;52.030;7.110;2023-05-29T08:07:38;21.08;;;4.75;;
41653;SDS011;68687;52.030;7.110;2023-05-29T08:10:04;16.55;;;4.30;;
41653;SDS011;68687;52.030;7.110;2023-05-29T08:12:30;23.52;;;4.68;;
41653;SDS011;68687;52.030;7.110;2023-05-29T08:14:56;21.05;;;4.68;;
41653;SDS011;68687;52.030;7.110;2023-05-29T08:17:30;13.77;;;4.07;;
41653;SDS011;68687;52.030;7.110;2023-05-29T08:19:55;16.70;;;4.63;;
41653;SDS011;68687;52.030;7.110;2023-05-29T08:22:27;24.35;;;5.43;;
41653;SDS011;68687;52.030;7.110;2023-05-29T08:24:59;19.40;;;4.50;;
41653;SDS011;68687;52.030;7.110;2023-05-29T08:27:25;16.58;;;4.53;;
41653;SDS011;68687;52.030;7.110;2023-05-29T08:29:50;17.45;;;4.20;;
41653;SDS011;68687;52.030;7.110;2023-05-29T08:32:15;16.63;;;4.60;;
41653;SDS011;68687;52.030;7.110;2023-05-29T08:34:40;13.55;;;4.15;;
41653;SDS011;68687;52.030;7.110;2023-05-29T08:37:06;18.83;;;4.63;;
41653;SDS011;68687;52.030;7.110;2023-05-29T08:39:32;15.38;;;4.03;;
41653;SDS011;68687;52.030;7.110;2023-05-29T08:41:59;17.75;;;5.35;;
41653;SDS011;68687;52.030;7.110;2023-05-29T08:44:32;18.83;;;5.00;;
41653;SDS011;68687;52.030;7.110;2023-05-29T08:47:03;20.15;;;4.80;;
41653;SDS011;68687;52.030;7.110;2023-05-29T08:49:41;15.60;;;4.50;;
41653;SDS011;68687;52.030;7.110;2023-05-29T08:52:18;17.58;;;5.05;;
41653;SDS011;68687;52.030;7.110;2023-05-29T08:54:47;25.08;;;4.72;;
41653;SDS011;68687;52.030;7.110;2023-05-29T08:57:12;18.98;;;3.92;;
41653;SDS011;68687;52.030;7.110;2023-05-29T08:59:39;11.77;;;4.50;;
41653;SDS011;68687;52.030;7.110;2023-05-29T09:02:07;19.17;;;5.00;;
41653;SDS011;68687;52.030;7.110;2023-05-29T09:04:33;23.05;;;4.38;;
41653;SDS011;68687;52.030;7.110;2023-05-29T09:06:58;14.85;;;4.28;;
41653;SDS011;68687;52.030;7.110;2023-05-29T09:09:24;13.30;;;4.10;;
41653;SDS011;68687;52.030;7.110;2023-05-29T09:11:52;20.17;;;4.75;;
41653;SDS011;68687;52.030;7.110;2023-05-29T09:14:51;15.25;;;4.85;;
41653;SDS011;68687;52.030;7.110;2023-05-29T09:17:10;15.95;;;4.70;;
41653;SDS011;68687;52.030;7.110;2023-05-29T09:19:37;12.90;;;4.72;;
41653;SDS011;68687;52.030;7.110;2023-05-29T09:22:06;15.45;;;4.07;;
41653;SDS011;68687;52.030;7.110;2023-05-29T09:24:35;15.38;;;4.57;;
41653;SDS011;68687;52.030;7.110;2023-05-29T09:27:03;16.92;;;4.18;;
41653;SDS011;68687;52.030;7.110;2023-05-29T09:29:32;15.10;;;4.47;;
41653;SDS011;68687;52.030;7.110;2023-05-29T09:32:06;13.70;;;4.55;;
41653;SDS011;68687;52.030;7.110;2023-05-29T09:34:37;18.40;;;4.45;;
41653;SDS011;68687;52.030;7.110;2023-05-29T09:37:03;13.50;;;4.43;;
41653;SDS011;68687;52.030;7.110;2023-05-29T09:42:07;13.98;;;4.80;;
41653;SDS011;68687;52.030;7.110;2023-05-29T09:44:33;15.40;;;4.28;;
41653;SDS011;68687;52.030;7.110;2023-05-29T09:46:59;12.65;;;4.18;;
41653;SDS011;68687;52.030;7.110;2023-05-29T09:49:25;19.30;;;4.57;;
41653;SDS011;68687;52.030;7.110;2023-05-29T09:51:55;13.88;;;4.25;;
41653;SDS011;68687;52.030;7.110;2023-05-29T09:54:21;19.90;;;5.10;;
41653;SDS011;68687;52.030;7.110;2023-05-29T09:56:47;15.95;;;4.20;;
41653;SDS011;68687;52.030;7.110;2023-05-29T09:59:13;16.00;;;4.68;;
41653;SDS011;68687;52.030;7.110;2023-05-29T10:01:40;15.57;;;4.72;;
41653;SDS011;68687;52.030;7.110;2023-05-29T10:04:07;19.98;;;4.68;;
41653;SDS011;68687;52.030;7.110;2023-05-29T10:06:35;12.50;;;4.32;;
41653;SDS011;68687;52.030;7.110;2023-05-29T10:09:08;10.95;;;4.65;;
41653;SDS011;68687;52.030;7.110;2023-05-29T10:11:35;15.45;;;4.70;;
41653;SDS011;68687;52.030;7.110;2023-05-29T10:14:03;19.73;;;4.85;;
41653;SDS011;68687;52.030;7.110;2023-05-29T10:16:31;13.13;;;4.13;;
41653;SDS011;68687;52.030;7.110;2023-05-29T10:19:01;14.82;;;4.20;;
41653;SDS011;68687;52.030;7.110;2023-05-29T10:21:32;10.65;;;3.97;;
41653;SDS011;68687;52.030;7.110;2023-05-29T10:24:01;13.63;;;3.90;;
41653;SDS011;68687;52.030;7.110;2023-05-29T10:26:31;12.65;;;4.07;;
41653;SDS011;68687;52.030;7.110;2023-05-29T10:32:01;17.70;;;4.32;;
41653;SDS011;68687;52.030;7.110;2023-05-29T10:37:06;10.57;;;4.53;;
41653;SDS011;68687;52.030;7.110;2023-05-29T10:39:52;9.63;;;3.95;;
41653;SDS011;68687;52.030;7.110;2023-05-29T10:53:10;13.80;;;4.65;;
41653;SDS011;68687;52.030;7.110;2023-05-29T10:55:42;17.23;;;4.35;;
41653;SDS011;68687;52.030;7.110;2023-05-29T10:58:19;14.23;;;3.80;;
41653;SDS011;68687;52.030;7.110;2023-05-29T11:00:48;18.88;;;4.32;;
41653;SDS011;68687;52.030;7.110;2023-05-29T11:03:32;9.45;;;4.07;;
41653;SDS011;68687;52.030;7.110;2023-05-29T11:08:43;13.23;;;4.35;;
41653;SDS011;68687;52.030;7.110;2023-05-29T11:11:13;11.63;;;4.00;;
41653;SDS011;68687;52.030;7.110;2023-05-29T11:14:03;12.77;;;4.32;;
41653;SDS011;68687;52.030;7.110;2023-05-29T11:18:59;15.87;;;5.13;;
41653;SDS011;68687;52.030;7.110;2023-05-29T11:24:18;12.30;;;4.47;;
41653;SDS011;68687;52.030;7.110;2023-05-29T11:26:52;14.85;;;4.40;;
41653;SDS011;68687;52.030;7.110;2023-05-29T11:29:26;11.38;;;3.67;;
41653;SDS011;68687;52.030;7.110;2023-05-29T11:32:05;17.40;;;4.13;;
41653;SDS011;68687;52.030;7.110;2023-05-29T11:34:34;14.88;;;3.72;;
41653;SDS011;68687;52.030;7.110;2023-05-29T11:37:05;14.25;;;4.25;;
41653;SDS011;68687;52.030;7.110;2023-05-29T11:39:30;11.32;;;4.25;;
41653;SDS011;68687;52.030;7.110;2023-05-29T11:42:00;19.77;;;4.00;;
41653;SDS011;68687;52.030;7.110;2023-05-29T11:44:26;13.48;;;4.53;;
41653;SDS011;68687;52.030;7.110;2023-05-29T11:49:39;9.95;;;3.88;;
41653;SDS011;68687;52.030;7.110;2023-05-29T11:52:12;14.90;;;4.50;;
41653;SDS011;68687;52.030;7.110;2023-05-29T11:54:49;9.80;;;3.88;;
41653;SDS011;68687;52.030;7.110;2023-05-29T11:57:19;10.82;;;3.72;;
41653;SDS011;68687;52.030;7.110;2023-05-29T11:59:44;9.38;;;4.15;;
41653;SDS011;68687;52.030;7.110;2023-05-29T12:02:10;9.70;;;3.78;;
41653;SDS011;68687;52.030;7.110;2023-05-29T12:04:36;9.40;;;3.45;;
41653;SDS011;68687;52.030;7.110;2023-05-29T12:07:01;14.70;;;3.97;;
41653;SDS011;68687;52.030;7.110;2023-05-29T12:09:27;14.90;;;4.50;;
41653;SDS011;68687;52.030;7.110;2023-05-29T12:11:54;13.07;;;4.75;;
41653;SDS011;68687;52.030;7.110;2023-05-29T12:14:28;16.10;;;4.60;;
41653;SDS011;68687;52.030;7.110;2023-05-29T12:16:54;14.45;;;4.47;;
41653;SDS011;68687;52.030;7.110;2023-05-29T12:19:19;13.68;;;4.20;;
41653;SDS011;68687;52.030;7.110;2023-05-29T12:21:45;8.68;;;3.88;;
41653;SDS011;68687;52.030;7.110;2023-05-29T12:24:10;10.77;;;4.03;;
41653;SDS011;68687;52.030;7.110;2023-05-29T12:26:36;8.30;;;3.85;;
41653;SDS011;68687;52.030;7.110;2023-05-29T12:29:02;10.07;;;3.95;;
41653;SDS011;68687;52.030;7.110;2023-05-29T12:31:29;8.10;;;3.72;;
41653;SDS011;68687;52.030;7.110;2023-05-29T12:34:07;10.00;;;3.97;;
41653;SDS011;68687;52.030;7.110;2023-05-29T12:36:33;13.48;;;4.07;;
41653;SDS011;68687;52.030;7.110;2023-05-29T12:38:58;11.93;;;4.47;;
41653;SDS011;68687;52.030;7.110;2023-05-29T12:41:27;9.52;;;3.63;;
41653;SDS011;68687;52.030;7.110;2023-05-29T12:43:54;13.10;;;4.10;;
41653;SDS011;68687;52.030;7.110;2023-05-29T12:46:21;12.93;;;3.63;;
41653;SDS011;68687;52.030;7.110;2023-05-29T12:48:46;10.50;;;3.63;;
41653;SDS011;68687;52.030;7.110;2023-05-29T12:51:12;9.82;;;3.80;;
41653;SDS011;68687;52.030;7.110;2023-05-29T12:53:37;14.40;;;3.38;;
41653;SDS011;68687;52.030;7.110;2023-05-29T12:56:03;11.43;;;4.38;;
41653;SDS011;68687;52.030;7.110;2023-05-29T12:58:28;16.63;;;4.70;;
41653;SDS011;68687;52.030;7.110;2023-05-29T13:00:53;13.48;;;4.65;;
41653;SDS011;68687;52.030;7.110;2023-05-29T13:03:22;8.10;;;3.97;;
41653;SDS011;68687;52.030;7.110;2023-05-29T13:05:51;14.48;;;4.38;;
41653;SDS011;68687;52.030;7.110;2023-05-29T13:08:18;9.57;;;3.97;;
41653;SDS011;68687;52.030;7.110;2023-05-29T13:10:44;12.75;;;4.40;;
41653;SDS011;68687;52.030;7.110;2023-05-29T13:13:10;12.85;;;4.22;;
41653;SDS011;68687;52.030;7.110;2023-05-29T13:15:37;10.50;;;4.50;;
41653;SDS011;68687;52.030;7.110;2023-05-29T13:18:03;16.33;;;3.78;;
41653;SDS011;68687;52.030;7.110;2023-05-29T13:20:28;9.07;;;3.92;;
41653;SDS011;68687;52.030;7.110;2023-05-29T13:22:54;12.95;;;3.67;;
41653;SDS011;68687;52.030;7.110;2023-05-29T13:25:20;15.18;;;5.13;;
41653;SDS011;68687;52.030;7.110;2023-05-29T13:27:46;13.63;;;4.10;;
41653;SDS011;68687;52.030;7.110;2023-05-29T13:30:13;13.20;;;4.13;;
41653;SDS011;68687;52.030;7.110;2023-05-29T13:32:40;13.30;;;4.03;;
41653;SDS011;68687;52.030;7.110;2023-05-29T13:35:06;12.32;;;4.25;;
41653;SDS011;68687;52.030;7.110;2023-05-29T13:37:31;12.57;;;4.15;;
41653;SDS011;68687;52.030;7.110;2023-05-29T13:39:57;16.17;;;4.10;;
41653;SDS011;68687;52.030;7.110;2023-05-29T13:42:22;13.85;;;4.20;;
41653;SDS011;68687;52.030;7.110;2023-05-29T13:44:48;15.77;;;3.92;;
41653;SDS011;68687;52.030;7.110;2023-05-29T13:47:14;15.30;;;4.30;;
41653;SDS011;68687;52.030;7.110;2023-05-29T13:49:40;11.07;;;3.72;;
41653;SDS011;68687;52.030;7.110;2023-05-29T13:52:06;12.60;;;4.03;;
41653;SDS011;68687;52.030;7.110;2023-05-29T13:54:31;13.15;;;3.83;;
41653;SDS011;68687;52.030;7.110;2023-05-29T13:57:06;8.43;;;3.50;;
41653;SDS011;68687;52.030;7.110;2023-05-29T13:59:32;14.02;;;3.53;;
41653;SDS011;68687;52.030;7.110;2023-05-29T14:01:59;12.27;;;3.92;;
41653;SDS011;68687;52.030;7.110;2023-05-29T14:04:25;10.60;;;3.60;;
41653;SDS011;68687;52.030;7.110;2023-05-29T14:06:51;10.48;;;4.07;;
41653;SDS011;68687;52.030;7.110;2023-05-29T14:09:17;10.80;;;4.57;;
41653;SDS011;68687;52.030;7.110;2023-05-29T14:11:51;11.95;;;3.90;;
41653;SDS011;68687;52.030;7.110;2023-05-29T14:14:16;12.95;;;4.28;;
41653;SDS011;68687;52.030;7.110;2023-05-29T14:16:42;6.97;;;3.63;;
41653;SDS011;68687;52.030;7.110;2023-05-29T14:19:07;11.07;;;3.92;;
41653;SDS011;68687;52.030;7.110;2023-05-29T14:21:33;13.77;;;4.28;;
41653;SDS011;68687;52.030;7.110;2023-05-29T14:23:58;12.45;;;3.97;;
41653;SDS011;68687;52.030;7.110;2023-05-29T14:26:23;9.80;;;3.67;;
41653;SDS011;68687;52.030;7.110;2023-05-29T14:28:48;22.42;;;4.18;;
41653;SDS011;68687;52.030;7.110;2023-05-29T14:31:14;11.73;;;3.42;;
41653;SDS011;68687;52.030;7.110;2023-05-29T14:33:39;12.18;;;3.78;;
41653;SDS011;68687;52.030;7.110;2023-05-29T14:36:05;11.70;;;3.85;;
41653;SDS011;68687;52.030;7.110;2023-05-29T14:38:30;11.40;;;3.72;;
41653;SDS011;68687;52.030;7.110;2023-05-29T14:40:55;15.07;;;4.07;;
41653;SDS011;68687;52.030;7.110;2023-05-29T14:43:21;10.82;;;3.90;;
41653;SDS011;68687;52.030;7.110;2023-05-29T14:45:46;14.27;;;3.80;;
41653;SDS011;68687;52.030;7.110;2023-05-29T14:48:11;14.02;;;4.28;;
41653;SDS011;68687;52.030;7.110;2023-05-29T14:50:37;13.57;;;4.57;;
41653;SDS011;68687;52.030;7.110;2023-05-29T14:53:02;10.05;;;3.58;;
41653;SDS011;68687;52.030;7.110;2023-05-29T14:55:28;12.48;;;4.82;;
41653;SDS011;68687;52.030;7.110;2023-05-29T14:57:53;15.73;;;3.90;;
41653;SDS011;68687;52.030;7.110;2023-05-29T15:00:18;13.63;;;4.15;;
41653;SDS011;68687;52.030;7.110;2023-05-29T15:02:44;13.82;;;3.50;;
41653;SDS011;68687;52.030;7.110;2023-05-29T15:05:09;13.27;;;4.50;;
41653;SDS011;68687;52.030;7.110;2023-05-29T15:07:35;13.57;;;4.20;;
41653;SDS011;68687;52.030;7.110;2023-05-29T15:10:00;13.82;;;4.80;;
41653;SDS011;68687;52.030;7.110;2023-05-29T15:12:26;14.27;;;4.63;;